Time,TemperatureF,DewpointF,PressureIn,WindDirection,WindDirectionDegrees,WindSpeedMPH,WindSpeedGustMPH,Humidity,HourlyPrecipIn,Conditions,Clouds,dailyrainin,SoftwareType,DateUTC
2013-05-22 00:04:00,73.0,-99.9,29.88,South,179,6.0,7.0,-999,-99.99,,,-99.99,,2013-05-22 04:04:00,
2013-05-22 00:13:00,72.0,-99.9,29.89,WSW,252,2.0,3.0,-999,-99.99,,,-99.99,,2013-05-22 04:13:00,
2013-05-22 00:23:00,-999.0,-99.9,29.88,South,175,5.0,6.0,-999,-99.99,,,-99.99,,2013-05-22 04:23:00,
2013-05-22 00:33:00,73.0,-99.9,29.88,SSE,164,3.0,5.0,-999,-99.99,,,-99.99,,2013-05-22 04:33:00,
2013-05-22 00:43:00,-999.0,-99.9,29.89,SSE,158,3.0,4.0,-999,-99.99,,,-99.99,,2013-05-22 04:43:00,
2013-05-22 00:53:00,-999.0,-99.9,29.89,South,172,3.0,4.0,-999,-99.99,,,-99.99,,2013-05-22 04:53:00,
2013-05-22 01:02:00,72.0,-99.9,29.89,SSE,163,4.0,5.0,-999,-99.99,,,-99.99,,2013-05-22 05:02:00,
2013-05-22 01:12:00,72.0,-99.9,29.89,South,175,5.0,5.0,-999,-99.99,,,-99.99,,2013-05-22 05:12:00,
2013-05-22 01:22:00,72.0,-99.9,29.89,North,-999,-999.0,-999.0,-999,-99.99,,,-99.99,,2013-05-22 05:22:00,
2013-05-22 01:32:00,72.0,-99.9,29.88,South,182,4.0,6.0,-999,-99.99,,,-99.99,,2013-05-22 05:32:00,
2013-05-22 01:42:00,73.0,-99.9,29.88,South,184,6.0,7.0,-999,-99.99,,,-99.99,,2013-05-22 05:42:00,
2013-05-22 01:52:00,-999.0,-99.9,29.88,South,180,7.0,9.0,-999,-99.99,,,-99.99,,2013-05-22 05:52:00,
2013-05-22 02:01:00,72.0,-99.9,29.87,South,181,6.0,8.0,-999,-99.99,,,-99.99,,2013-05-22 06:01:00,
2013-05-22 02:12:00,72.0,-99.9,29.87,North,-999,-999.0,-999.0,-999,-99.99,,,-99.99,,2013-05-22 06:12:00,
2013-05-22 02:21:00,71.0,-99.9,29.86,North,-999,-999.0,-999.0,-999,-99.99,,,-99.99,,2013-05-22 06:21:00,
2013-05-22 02:32:00,72.0,-99.9,29.86,South,190,6.0,8.0,-999,-99.99,,,-99.99,,2013-05-22 06:32:00,
2013-05-22 02:42:00,71.0,-99.9,29.86,North,-999,-999.0,-999.0,-999,-99.99,,,-99.99,,2013-05-22 06:42:00,
2013-05-22 02:52:00,71.0,-99.9,29.86,North,-999,-999.0,-999.0,-999,-99.99,,,-99.99,,2013-05-22 06:52:00,
2013-05-22 03:01:00,71.0,-99.9,29.86,SSW,213,4.0,5.0,-999,-99.99,,,-99.99,,2013-05-22 07:01:00,
2013-05-22 03:11:00,71.0,-99.9,29.86,South,191,6.0,7.0,-999,-99.99,,,-99.99,,2013-05-22 07:11:00,
2013-05-22 03:21:00,-999.0,-99.9,29.86,South,183,7.0,9.0,-999,-99.99,,,-99.99,,2013-05-22 07:21:00,
2013-05-22 03:32:00,71.0,-99.9,29.86,South,190,6.0,9.0,-999,-99.99,,,-99.99,,2013-05-22 07:32:00,
2013-05-22 03:42:00,71.0,-99.9,29.86,South,187,6.0,8.0,-999,-99.99,,,-99.99,,2013-05-22 07:42:00,
2013-05-22 03:53:00,-999.0,-99.9,29.86,South,184,6.0,8.0,-999,-99.99,,,-99.99,,2013-05-22 07:53:00,
2013-05-22 04:02:00,72.0,-99.9,29.86,South,185,5.0,8.0,-999,-99.99,,,-99.99,,2013-05-22 08:02:00,
2013-05-22 04:11:00,71.0,-99.9,29.86,North,-999,-999.0,-999.0,-999,-99.99,,,-99.99,,2013-05-22 08:11:00,
2013-05-22 04:22:00,-999.0,-99.9,29.86,SSW,193,7.0,7.0,-999,-99.99,,,-99.99,,2013-05-22 08:22:00,
2013-05-22 04:32:00,71.0,-99.9,29.86,SSW,195,6.0,9.0,-999,-99.99,,,-99.99,,2013-05-22 08:32:00,
2013-05-22 04:42:00,71.0,-99.9,29.86,North,-999,-999.0,-999.0,-999,-99.99,,,-99.99,,2013-05-22 08:42:00,
2013-05-22 04:52:00,71.0,-99.9,29.86,North,-999,-999.0,-999.0,-999,-99.99,,,-99.99,,2013-05-22 08:52:00,
2013-05-22 05:01:00,71.0,-99.9,29.86,SSW,213,4.0,6.0,-999,-99.99,,,-99.99,,2013-05-22 09:01:00,
2013-05-22 05:12:00,71.0,-99.9,29.86,South,190,5.0,6.0,-999,-99.99,,,-99.99,,2013-05-22 09:12:00,
2013-05-22 05:22:00,71.0,-99.9,29.86,North,-999,-999.0,-999.0,-999,-99.99,,,-99.99,,2013-05-22 09:22:00,
2013-05-22 05:33:00,71.0,-99.9,29.86,SSW,196,3.0,6.0,-999,-99.99,,,-99.99,,2013-05-22 09:33:00,
2013-05-22 05:43:00,-999.0,-99.9,29.86,South,190,6.0,8.0,-999,-99.99,,,-99.99,,2013-05-22 09:43:00,
2013-05-22 05:53:00,-999.0,-99.9,29.86,South,189,6.0,7.0,-999,-99.99,,,-99.99,,2013-05-22 09:53:00,
2013-05-22 06:03:00,72.0,-99.9,29.86,South,189,4.0,9.0,-999,-99.99,,,-99.99,,2013-05-22 10:03:00,
2013-05-22 06:12:00,-999.0,-99.9,29.86,South,190,5.0,7.0,-999,-99.99,,,-99.99,,2013-05-22 10:12:00,
2013-05-22 06:23:00,-999.0,-99.9,29.87,SSW,192,7.0,9.0,-999,-99.99,,,-99.99,,2013-05-22 10:23:00,
2013-05-22 06:33:00,-999.0,-99.9,29.87,South,179,7.0,10.0,-999,-99.99,,,-99.99,,2013-05-22 10:33:00,
2013-05-22 06:42:00,-999.0,-99.9,29.87,SSW,192,6.0,9.0,-999,-99.99,,,-99.99,,2013-05-22 10:42:00,
2013-05-22 06:53:00,-999.0,-99.9,29.88,SSW,202,6.0,8.0,-999,-99.99,,,-99.99,,2013-05-22 10:53:00,
2013-05-22 07:02:00,-999.0,-99.9,29.89,South,189,6.0,7.0,-999,-99.99,,,-99.99,,2013-05-22 11:02:00,
2013-05-22 07:12:00,-999.0,-99.9,29.89,South,190,6.0,11.0,-999,-99.99,,,-99.99,,2013-05-22 11:12:00,
2013-05-22 07:22:00,-999.0,-99.9,29.89,South,187,8.0,13.0,-999,-99.99,,,-99.99,,2013-05-22 11:22:00,
2013-05-22 07:32:00,-999.0,-99.9,29.88,South,184,9.0,11.0,-999,-99.99,,,-99.99,,2013-05-22 11:32:00,
2013-05-22 07:42:00,-999.0,-99.9,29.90,SW,214,8.0,10.0,-999,-99.99,,,-99.99,,2013-05-22 11:42:00,
2013-05-22 07:53:00,73.0,-99.9,29.90,North,-999,-999.0,-999.0,-999,-99.99,,,-99.99,,2013-05-22 11:53:00,
2013-05-22 08:02:00,73.0,-99.9,29.91,SW,214,8.0,9.0,-999,-99.99,,,-99.99,,2013-05-22 12:02:00,
2013-05-22 08:12:00,73.0,-99.9,29.92,North,-999,-999.0,-999.0,-999,-99.99,,,-99.99,,2013-05-22 12:12:00,
2013-05-22 08:22:00,-999.0,-99.9,29.92,SSW,205,7.0,9.0,-999,-99.99,,,-99.99,,2013-05-22 12:22:00,
2013-05-22 08:32:00,73.0,-99.9,29.92,SSW,201,8.0,11.0,-999,-99.99,,,-99.99,,2013-05-22 12:32:00,
2013-05-22 08:42:00,73.0,-99.9,29.93,North,-999,-999.0,-999.0,-999,-99.99,,,-99.99,,2013-05-22 12:42:00,
2013-05-22 08:52:00,74.0,-99.9,29.92,North,-999,-999.0,-999.0,-999,-99.99,,,-99.99,,2013-05-22 12:52:00,
2013-05-22 09:02:00,74.0,-99.9,29.92,South,188,8.0,12.0,-999,-99.99,,,-99.99,,2013-05-22 13:02:00,
2013-05-22 09:12:00,74.0,-99.9,29.93,SW,219,5.0,10.0,-999,-99.99,,,-99.99,,2013-05-22 13:12:00,
2013-05-22 09:22:00,74.0,-99.9,29.93,North,-999,-999.0,-999.0,-999,-99.99,,,-99.99,,2013-05-22 13:22:00,
2013-05-22 09:32:00,74.0,-99.9,29.93,SW,219,7.0,10.0,-999,-99.99,,,-99.99,,2013-05-22 13:32:00,
2013-05-22 09:42:00,74.0,-99.9,29.93,North,-999,-999.0,-999.0,-999,-99.99,,,-99.99,,2013-05-22 13:42:00,
2013-05-22 09:52:00,-999.0,-99.9,29.93,South,191,7.0,12.0,-999,-99.99,,,-99.99,,2013-05-22 13:52:00,
2013-05-22 10:02:00,-999.0,-99.9,29.93,SSW,196,8.0,11.0,-999,-99.99,,,-99.99,,2013-05-22 14:02:00,
2013-05-22 10:11:00,-999.0,-99.9,29.93,South,176,8.0,10.0,-999,-99.99,,,-99.99,,2013-05-22 14:11:00,
2013-05-22 10:22:00,-999.0,-99.9,29.93,South,184,9.0,10.0,-999,-99.99,,,-99.99,,2013-05-22 14:22:00,
2013-05-22 10:32:00,75.0,-99.9,29.93,South,191,9.0,14.0,-999,-99.99,,,-99.99,,2013-05-22 14:32:00,
2013-05-22 10:42:00,76.0,-99.9,29.93,SSW,194,9.0,14.0,-999,-99.99,,,-99.99,,2013-05-22 14:42:00,
2013-05-22 10:53:00,75.0,-99.9,29.92,North,-999,-999.0,-999.0,-999,-99.99,,,-99.99,,2013-05-22 14:53:00,
2013-05-22 11:02:00,75.0,-99.9,29.92,South,178,10.0,13.0,-999,-99.99,,,-99.99,,2013-05-22 15:02:00,
2013-05-22 11:11:00,74.0,-99.9,29.92,South,179,13.0,14.0,-999,-99.99,,,-99.99,,2013-05-22 15:11:00,
2013-05-22 11:22:00,74.0,-99.9,29.92,South,172,11.0,13.0,-999,-99.99,,,-99.99,,2013-05-22 15:22:00,
2013-05-22 11:33:00,-999.0,-99.9,29.92,South,171,12.0,13.0,-999,-99.99,,,-99.99,,2013-05-22 15:33:00,
2013-05-22 11:43:00,75.0,-99.9,29.92,North,-999,-999.0,-999.0,-999,-99.99,,,-99.99,,2013-05-22 15:43:00,
2013-05-22 11:53:00,75.0,-99.9,29.92,North,-999,-999.0,-999.0,-999,-99.99,,,-99.99,,2013-05-22 15:53:00,
2013-05-22 12:03:00,-999.0,-99.9,29.92,South,171,12.0,13.0,-999,-99.99,,,-99.99,,2013-05-22 16:03:00,
2013-05-22 12:13:00,75.0,-99.9,29.92,South,169,11.0,14.0,-999,-99.99,,,-99.99,,2013-05-22 16:13:00,
2013-05-22 12:23:00,-999.0,-99.9,29.92,South,171,12.0,14.0,-999,-99.99,,,-99.99,,2013-05-22 16:23:00,
2013-05-22 12:33:00,77.0,-99.9,29.91,South,175,10.0,13.0,-999,-99.99,,,-99.99,,2013-05-22 16:33:00,
2013-05-22 12:42:00,-999.0,-99.9,29.91,South,176,12.0,13.0,-999,-99.99,,,-99.99,,2013-05-22 16:42:00,
2013-05-22 12:53:00,77.0,-99.9,29.91,North,-999,-999.0,-999.0,-999,-99.99,,,-99.99,,2013-05-22 16:53:00,
2013-05-22 13:02:00,77.0,-99.9,29.91,South,174,11.0,14.0,-999,-99.99,,,-99.99,,2013-05-22 17:02:00,
2013-05-22 13:12:00,78.0,-99.9,29.91,South,176,10.0,11.0,-999,-99.99,,,-99.99,,2013-05-22 17:12:00,
2013-05-22 13:23:00,79.0,-99.9,29.90,North,-999,-999.0,-999.0,-999,-99.99,,,-99.99,,2013-05-22 17:23:00,
2013-05-22 13:33:00,78.0,-99.9,29.90,South,180,10.0,14.0,-999,-99.99,,,-99.99,,2013-05-22 17:33:00,
2013-05-22 13:42:00,79.0,-99.9,29.90,South,170,9.0,12.0,-999,-99.99,,,-99.99,,2013-05-22 17:42:00,
2013-05-22 13:54:00,79.0,-99.9,29.89,North,-999,-999.0,-999.0,-999,-99.99,,,-99.99,,2013-05-22 17:54:00,
2013-05-22 14:02:00,78.0,-99.9,29.89,South,171,9.0,10.0,-999,-99.99,,,-99.99,,2013-05-22 18:02:00,
2013-05-22 14:14:00,81.0,-99.9,29.89,South,180,10.0,14.0,-999,-99.99,,,-99.99,,2013-05-22 18:14:00,
2013-05-22 14:22:00,81.0,-99.9,29.88,North,-999,-999.0,-999.0,-999,-99.99,,,-99.99,,2013-05-22 18:22:00,
2013-05-22 14:34:00,82.0,-99.9,29.88,South,189,9.0,13.0,-999,-99.99,,,-99.99,,2013-05-22 18:34:00,
2013-05-22 14:42:00,80.0,-99.9,29.88,South,169,11.0,13.0,-999,-99.99,,,-99.99,,2013-05-22 18:42:00,
2013-05-22 14:52:00,81.0,-99.9,29.87,North,-999,-999.0,-999.0,-999,-99.99,,,-99.99,,2013-05-22 18:52:00,
2013-05-22 15:02:00,81.0,-99.9,29.87,South,181,11.0,14.0,-999,-99.99,,,-99.99,,2013-05-22 19:02:00,
2013-05-22 15:11:00,81.0,-99.9,29.87,South,172,12.0,13.0,-999,-99.99,,,-99.99,,2013-05-22 19:11:00,
2013-05-22 15:22:00,82.0,-99.9,29.87,North,-999,-999.0,-999.0,-999,-99.99,,,-99.99,,2013-05-22 19:22:00,
2013-05-22 15:32:00,-999.0,-99.9,29.87,South,174,9.0,11.0,-999,-99.99,,,-99.99,,2013-05-22 19:32:00,
2013-05-22 15:42:00,82.0,-99.9,29.86,South,179,12.0,13.0,-999,-99.99,,,-99.99,,2013-05-22 19:42:00,
2013-05-22 15:52:00,-999.0,-99.9,29.86,South,176,12.0,14.0,-999,-99.99,,,-99.99,,2013-05-22 19:52:00,
2013-05-22 16:02:00,81.0,-99.9,29.85,South,180,14.0,15.0,-999,-99.99,,,-99.99,,2013-05-22 20:02:00,
2013-05-22 16:11:00,82.0,-99.9,29.85,South,177,12.0,13.0,-999,-99.99,,,-99.99,,2013-05-22 20:11:00,
2013-05-22 16:22:00,83.0,-99.9,29.85,North,-999,-999.0,-999.0,-999,-99.99,,,-99.99,,2013-05-22 20:22:00,
2013-05-22 16:32:00,82.0,-99.9,29.84,South,187,10.0,12.0,-999,-99.99,,,-99.99,,2013-05-22 20:32:00,
2013-05-22 16:42:00,83.0,-99.9,29.84,South,183,12.0,14.0,-999,-99.99,,,-99.99,,2013-05-22 20:42:00,
2013-05-22 16:52:00,82.0,-99.9,29.83,North,-999,-999.0,-999.0,-999,-99.99,,,-99.99,,2013-05-22 20:52:00,
2013-05-22 17:01:00,83.0,-99.9,29.83,South,186,12.0,13.0,-999,-99.99,,,-99.99,,2013-05-22 21:01:00,
2013-05-22 17:11:00,83.0,-99.9,29.84,South,189,11.0,16.0,-999,-99.99,,,-99.99,,2013-05-22 21:11:00,
2013-05-22 17:22:00,83.0,-99.9,29.84,South,189,11.0,16.0,-999,-99.99,,,-99.99,,2013-05-22 21:22:00,
2013-05-22 17:33:00,82.0,-99.9,29.83,North,-999,-999.0,-999.0,-999,-99.99,,,-99.99,,2013-05-22 21:33:00,
2013-05-22 17:42:00,82.0,-99.9,29.83,North,-999,-999.0,-999.0,-999,-99.99,,,-99.99,,2013-05-22 21:42:00,
2013-05-22 17:53:00,82.0,-99.9,29.83,North,-999,-999.0,-999.0,-999,-99.99,,,-99.99,,2013-05-22 21:53:00,
2013-05-22 18:52:00,-999.0,-99.9,29.83,South,185,11.0,14.0,-999,-99.99,,,-99.99,,2013-05-22 22:52:00,
2013-05-22 19:02:00,82.0,-99.9,29.83,South,183,9.0,14.0,-999,-99.99,,,-99.99,,2013-05-22 23:02:00,
2013-05-22 19:13:00,83.0,-99.9,29.83,South,181,11.0,15.0,-999,-99.99,,,-99.99,,2013-05-22 23:13:00,
2013-05-22 19:22:00,83.0,-99.9,29.83,North,-999,-999.0,-999.0,-999,-99.99,,,-99.99,,2013-05-22 23:22:00,
2013-05-22 19:32:00,83.0,-99.9,29.83,South,182,10.0,15.0,-999,-99.99,,,-99.99,,2013-05-22 23:32:00,
2013-05-22 19:42:00,83.0,-99.9,29.83,South,184,12.0,14.0,-999,-99.99,,,-99.99,,2013-05-22 23:42:00,
2013-05-22 19:53:00,-999.0,-99.9,29.83,South,181,14.0,18.0,-999,-99.99,,,-99.99,,2013-05-22 23:53:00,
2013-05-22 20:02:00,83.0,-99.9,29.83,South,184,12.0,16.0,-999,-99.99,,,-99.99,,2013-05-23 00:02:00,
2013-05-22 20:11:00,82.0,-99.9,29.83,South,185,11.0,13.0,-999,-99.99,,,-99.99,,2013-05-23 00:11:00,
2013-05-22 20:22:00,-999.0,-99.9,29.84,South,179,11.0,15.0,-999,-99.99,,,-99.99,,2013-05-23 00:22:00,
2013-05-22 20:32:00,80.0,-99.9,29.84,South,183,11.0,15.0,-999,-99.99,,,-99.99,,2013-05-23 00:32:00,
2013-05-22 20:42:00,81.0,-99.9,29.85,South,189,8.0,12.0,-999,-99.99,,,-99.99,,2013-05-23 00:42:00,
2013-05-22 20:52:00,80.0,-99.9,29.85,North,-999,-999.0,-999.0,-999,-99.99,,,-99.99,,2013-05-23 00:52:00,
2013-05-22 21:02:00,81.0,-99.9,29.85,South,187,10.0,14.0,-999,-99.99,,,-99.99,,2013-05-23 01:02:00,
2013-05-22 21:11:00,80.0,-99.9,29.85,South,187,9.0,13.0,-999,-99.99,,,-99.99,,2013-05-23 01:11:00,
2013-05-22 21:22:00,-999.0,-99.9,29.86,SSW,192,8.0,10.0,-999,-99.99,,,-99.99,,2013-05-23 01:22:00,
2013-05-22 21:32:00,80.0,-99.9,29.86,South,189,9.0,12.0,-999,-99.99,,,-99.99,,2013-05-23 01:32:00,
2013-05-22 21:42:00,79.0,-99.9,29.87,South,184,9.0,12.0,-999,-99.99,,,-99.99,,2013-05-23 01:42:00,
2013-05-22 21:52:00,-999.0,-99.9,29.87,South,178,11.0,14.0,-999,-99.99,,,-99.99,,2013-05-23 01:52:00,
2013-05-22 22:02:00,78.0,-99.9,29.88,South,181,11.0,12.0,-999,-99.99,,,-99.99,,2013-05-23 02:02:00,
2013-05-22 22:11:00,79.0,-99.9,29.88,South,184,10.0,12.0,-999,-99.99,,,-99.99,,2013-05-23 02:11:00,
2013-05-22 22:22:00,78.0,-99.9,29.88,North,-999,-999.0,-999.0,-999,-99.99,,,-99.99,,2013-05-23 02:22:00,
2013-05-22 22:32:00,78.0,-99.9,29.88,South,181,7.0,10.0,-999,-99.99,,,-99.99,,2013-05-23 02:32:00,
2013-05-22 22:42:00,78.0,-99.9,29.88,South,181,7.0,10.0,-999,-99.99,,,-99.99,,2013-05-23 02:42:00,
2013-05-22 22:52:00,78.0,-99.9,29.88,South,181,7.0,10.0,-999,-99.99,,,-99.99,,2013-05-23 02:52:00,
2013-05-22 23:02:00,76.0,-99.9,29.91,NNW,335,10.0,21.0,-999,-99.99,,,-99.99,,2013-05-23 03:02:00,
2013-05-22 23:11:00,76.0,-99.9,29.90,NNW,343,7.0,14.0,-999,-99.99,,,-99.99,,2013-05-23 03:11:00,
2013-05-22 23:22:00,74.0,-99.9,29.91,North,-999,-999.0,-999.0,-999,-99.99,,,-99.99,,2013-05-23 03:22:00,
2013-05-22 23:33:00,74.0,-99.9,29.91,NNW,328,6.0,10.0,-999,-99.99,,,-99.99,,2013-05-23 03:33:00,
2013-05-22 23:43:00,73.0,-99.9,29.91,NNW,340,3.0,7.0,-999,-99.99,,,-99.99,,2013-05-23 03:43:00,
2013-05-22 23:53:00,-999.0,-99.9,29.90,NW,306,4.0,5.0,-999,-99.99,,,-99.99,,2013-05-23 03:53:00,